createdAt,value
2022-09-28T00:01:42.600Z,88.63
2022-09-28T00:04:19.453Z,88.57
2022-09-28T00:06:55.615Z,88.54
2022-09-28T00:09:31.870Z,88.43
2022-09-28T00:12:08.565Z,88.35
2022-09-28T00:14:45.972Z,88.18
2022-09-28T00:17:23.282Z,87.89
2022-09-28T00:20:01.017Z,87.76
2022-09-28T00:22:37.157Z,87.52
2022-09-28T00:25:16.913Z,87.42
2022-09-28T00:27:57.382Z,87.34
2022-09-28T00:30:34.021Z,87.29
2022-09-28T00:33:10.786Z,87.29
2022-09-28T00:35:47.401Z,87.32
2022-09-28T00:38:23.663Z,87.39
2022-09-28T00:41:00.528Z,87.40
2022-09-28T00:43:36.797Z,87.38
2022-09-28T00:46:23.041Z,87.28
2022-09-28T00:49:07.567Z,87.22
2022-09-28T00:51:48.561Z,87.27
2022-09-28T00:54:26.253Z,87.33
2022-09-28T00:57:04.160Z,87.44
2022-09-28T00:59:41.068Z,87.50
2022-09-28T01:02:17.814Z,87.50
2022-09-28T01:04:57.080Z,87.50
2022-09-28T01:07:34.619Z,87.51
2022-09-28T01:10:13.261Z,87.52
2022-09-28T01:12:49.395Z,87.48
2022-09-28T01:15:28.865Z,87.42
2022-09-28T01:18:18.873Z,87.34
2022-09-28T01:21:11.121Z,87.41
2022-09-28T01:24:30.292Z,87.59
2022-09-28T01:27:28.171Z,87.73
2022-09-28T01:30:13.105Z,87.80
2022-09-28T01:33:03.939Z,87.80
2022-09-28T01:35:50.571Z,87.86
2022-09-28T01:38:34.997Z,87.99
2022-09-28T01:41:13.129Z,87.98
2022-09-28T01:43:56.178Z,88.01
2022-09-28T01:46:44.723Z,88.10
2022-09-28T01:49:30.982Z,88.24
2022-09-28T01:52:16.227Z,88.32
2022-09-28T01:54:58.786Z,88.46
2022-09-28T01:57:44.082Z,88.58
2022-09-28T02:00:24.945Z,88.73
2022-09-28T02:03:12.645Z,88.90
2022-09-28T02:06:00.094Z,89.01
2022-09-28T02:08:41.995Z,89.14
2022-09-28T02:11:21.178Z,89.17
2022-09-28T02:14:06.068Z,89.20
2022-09-28T02:16:45.941Z,89.19
2022-09-28T02:19:26.724Z,89.27
2022-09-28T02:22:23.432Z,89.30
2022-09-28T02:25:09.948Z,89.37
2022-09-28T02:27:55.304Z,89.40
2022-09-28T02:30:33.233Z,89.40
2022-09-28T02:33:17.912Z,89.39
2022-09-28T02:35:54.278Z,89.31
2022-09-28T02:38:31.499Z,89.25
2022-09-28T02:41:22.967Z,89.20
2022-09-28T02:44:18.356Z,89.10
2022-09-28T02:47:05.676Z,89.02
2022-09-28T02:49:55.603Z,88.87
2022-09-28T02:53:09.963Z,88.69
2022-09-28T02:56:07.935Z,88.55
2022-09-28T02:59:04.098Z,88.39
2022-09-28T03:01:52.214Z,88.17
2022-09-28T03:04:41.983Z,87.94
2022-09-28T03:07:31.938Z,87.77
2022-09-28T03:10:19.170Z,87.74
2022-09-28T03:12:57.837Z,87.78
2022-09-28T03:15:37.001Z,87.82
2022-09-28T03:18:13.360Z,87.80
2022-09-28T03:20:50.961Z,87.62
2022-09-28T03:23:27.320Z,87.35
2022-09-28T03:26:03.442Z,87.09
2022-09-28T03:28:39.632Z,86.88
2022-09-28T03:31:16.495Z,86.68
2022-09-28T03:33:53.638Z,86.53
2022-09-28T03:36:29.763Z,86.44
2022-09-28T03:39:06.336Z,86.38
2022-09-28T03:41:42.499Z,86.33
2022-09-28T03:44:18.754Z,86.26
2022-09-28T03:46:54.997Z,86.20
2022-09-28T03:49:31.603Z,86.18
2022-09-28T03:52:08.573Z,86.10
2022-09-28T03:54:49.098Z,86.06
2022-09-28T03:57:25.710Z,86.00
2022-09-28T04:00:02.381Z,85.98
2022-09-28T04:02:39.473Z,86.00
2022-09-28T04:05:16.296Z,86.07
2022-09-28T04:07:54.042Z,86.06
2022-09-28T04:10:30.734Z,86.14
2022-09-28T04:13:06.835Z,86.20
2022-09-28T04:15:43.259Z,86.19
2022-09-28T04:18:19.727Z,86.16
2022-09-28T04:21:38.337Z,86.29
2022-09-28T04:24:20.350Z,86.45
2022-09-28T04:27:17.774Z,86.59
2022-09-28T04:29:53.890Z,86.60
2022-09-28T04:32:30.064Z,86.68
2022-09-28T04:35:07.531Z,86.78
2022-09-28T04:37:43.951Z,86.82
2022-09-28T04:40:20.949Z,86.83
2022-09-28T04:43:01.191Z,86.74
2022-09-28T04:45:37.800Z,86.81
2022-09-28T04:48:18.646Z,86.87
2022-09-28T04:51:10.217Z,86.87
2022-09-28T04:53:46.713Z,86.90
2022-09-28T04:56:23.669Z,87.06
2022-09-28T04:58:59.785Z,87.30
2022-09-28T05:01:37.161Z,87.36
2022-09-28T05:04:13.462Z,87.40
2022-09-28T05:07:08.205Z,87.38
2022-09-28T05:09:45.371Z,87.50
2022-09-28T05:12:21.640Z,87.60
2022-09-28T05:14:57.829Z,87.64
2022-09-28T05:17:34.057Z,87.78
2022-09-28T05:20:29.163Z,87.86
2022-09-28T05:23:05.598Z,87.99
2022-09-28T05:25:42.474Z,88.12
2022-09-28T05:28:30.778Z,88.17
2022-09-28T05:31:27.357Z,88.18
2022-09-28T05:34:55.730Z,88.10
2022-09-28T05:37:36.747Z,87.85
2022-09-28T05:40:16.146Z,87.19
2022-09-28T05:42:52.474Z,86.60
2022-09-28T05:45:29.065Z,86.18
2022-09-28T05:48:06.221Z,85.77
2022-09-28T05:50:42.719Z,84.99
2022-09-28T05:53:19.188Z,84.04
2022-09-28T05:55:58.458Z,83.10
2022-09-28T05:58:35.258Z,80.95
2022-09-28T06:01:12.251Z,79.73
2022-09-28T06:03:48.527Z,77.59
2022-09-28T06:06:24.998Z,75.90
2022-09-28T06:09:01.374Z,74.72
2022-09-28T06:11:56.591Z,73.01
2022-09-28T06:14:52.571Z,71.67
2022-09-28T06:17:28.917Z,71.92
2022-09-28T06:20:29.998Z,71.01
2022-09-28T06:23:17.758Z,70.81
2022-09-28T06:25:54.171Z,70.45
2022-09-28T06:28:30.536Z,69.78
2022-09-28T06:31:07.271Z,70.22
2022-09-28T06:33:51.656Z,70.05
2022-09-28T06:36:29.488Z,70.00
2022-09-28T06:39:05.962Z,69.80
2022-09-28T06:41:44.410Z,70.32
2022-09-28T06:44:26.105Z,70.78
2022-09-28T06:47:58.487Z,71.08
2022-09-28T06:50:43.810Z,70.78
2022-09-28T06:54:10.042Z,69.69
2022-09-28T06:56:49.680Z,68.87
2022-09-28T06:59:28.071Z,67.31
2022-09-28T07:02:04.549Z,66.52
2022-09-28T07:05:31.028Z,64.89
2022-09-28T07:08:51.481Z,62.30
2022-09-28T07:11:48.384Z,60.60
2022-09-28T07:14:47.308Z,58.39
2022-09-28T07:17:25.525Z,56.84
2022-09-28T07:20:14.240Z,56.10
2022-09-28T07:22:59.829Z,55.81
2022-09-28T07:25:50.381Z,54.25
2022-09-28T07:29:19.757Z,53.56
2022-09-28T07:32:49.645Z,54.40
2022-09-28T07:35:36.477Z,54.23
2022-09-28T07:38:14.733Z,53.28
2022-09-28T07:41:08.747Z,52.51
2022-09-28T07:43:45.935Z,52.95
2022-09-28T07:46:22.359Z,53.59
2022-09-28T07:49:09.817Z,54.81
2022-09-28T07:52:07.553Z,55.38
2022-09-28T07:54:56.656Z,55.90
2022-09-28T07:58:01.865Z,55.45
2022-09-28T08:00:56.947Z,56.77
2022-09-28T08:03:34.418Z,57.07
2022-09-28T08:06:12.876Z,58.33
2022-09-28T08:08:50.396Z,57.76
2022-09-28T08:11:28.819Z,55.94
2022-09-28T08:14:24.755Z,56.35
2022-09-28T08:17:19.483Z,56.03
2022-09-28T08:20:17.255Z,55.18
2022-09-28T08:22:53.666Z,54.13
2022-09-28T08:25:30.085Z,53.44
2022-09-28T08:28:07.579Z,53.21
2022-09-28T08:30:51.709Z,53.20
2022-09-28T08:33:53.855Z,54.19
2022-09-28T08:37:16.207Z,54.84
2022-09-28T08:40:24.760Z,54.58
2022-09-28T08:43:58.369Z,53.58
2022-09-28T08:47:44.696Z,51.94
2022-09-28T08:50:35.141Z,51.21
2022-09-28T08:53:41.736Z,50.64
2022-09-28T08:56:42.506Z,47.77
2022-09-28T08:59:26.024Z,47.57
2022-09-28T09:02:23.120Z,46.86
2022-09-28T09:05:01.140Z,47.47
2022-09-28T09:08:27.256Z,47.05
2022-09-28T09:11:16.857Z,47.36
2022-09-28T09:14:36.852Z,47.35
2022-09-28T09:17:33.469Z,48.17
2022-09-28T09:20:39.642Z,48.94
2022-09-28T09:24:11.968Z,49.48
2022-09-28T09:26:50.670Z,49.68
2022-09-28T09:29:52.910Z,48.08
2022-09-28T09:33:24.950Z,48.15
2022-09-28T09:37:20.669Z,49.08
2022-09-28T09:41:09.224Z,47.98
2022-09-28T09:44:52.452Z,47.62
2022-09-28T09:48:04.671Z,47.37
2022-09-28T09:50:49.717Z,48.08
2022-09-28T09:53:38.654Z,47.85
2022-09-28T09:56:28.335Z,48.46
2022-09-28T09:59:24.344Z,49.24
2022-09-28T10:02:29.733Z,49.75
2022-09-28T10:05:28.452Z,49.28
2022-09-28T10:08:18.515Z,47.84
2022-09-28T10:11:08.477Z,48.72
2022-09-28T10:13:48.624Z,49.21
2022-09-28T10:16:48.260Z,48.48
2022-09-28T10:19:37.841Z,49.66
2022-09-28T10:22:52.064Z,49.04
2022-09-28T10:25:29.504Z,49.26
2022-09-28T10:28:08.871Z,49.62
2022-09-28T10:30:45.353Z,49.79
2022-09-28T10:33:37.135Z,50.40
2022-09-28T10:36:12.999Z,50.05
2022-09-28T10:38:52.080Z,51.24
2022-09-28T10:41:54.905Z,50.84
2022-09-28T10:44:50.037Z,50.11
2022-09-28T10:47:36.525Z,49.22
2022-09-28T10:50:28.779Z,49.73
2022-09-28T10:53:22.691Z,50.06
2022-09-28T10:56:33.006Z,49.77
2022-09-28T10:59:41.094Z,49.55
2022-09-28T11:02:36.239Z,48.76
2022-09-28T11:05:30.051Z,48.84
2022-09-28T11:08:18.400Z,48.75
2022-09-28T11:11:08.676Z,48.65
2022-09-28T11:13:54.738Z,49.10
2022-09-28T11:16:37.489Z,49.14
2022-09-28T11:19:33.849Z,49.44
2022-09-28T11:22:41.969Z,48.91
2022-09-28T11:25:29.102Z,49.09
2022-09-28T11:28:07.372Z,48.20
2022-09-28T11:30:55.866Z,49.12
2022-09-28T11:33:49.365Z,49.81
2022-09-28T11:38:02.375Z,49.83
2022-09-28T11:41:17.669Z,50.96
2022-09-28T11:44:33.684Z,50.77
2022-09-28T11:47:50.672Z,49.41
2022-09-28T11:50:46.951Z,48.72
2022-09-28T11:53:37.258Z,49.06
2022-09-28T11:56:30.345Z,48.77
2022-09-28T11:59:27.632Z,48.26
2022-09-28T12:02:31.113Z,49.27
2022-09-28T12:05:32.585Z,49.14
2022-09-28T12:08:20.933Z,48.10
2022-09-28T12:11:40.140Z,47.37
2022-09-28T12:14:34.100Z,47.53
2022-09-28T12:17:28.172Z,47.56
2022-09-28T12:20:18.801Z,47.78
2022-09-28T12:23:16.068Z,47.78
2022-09-28T12:26:03.856Z,48.35
2022-09-28T12:28:57.500Z,47.79
2022-09-28T12:31:47.149Z,48.81
2022-09-28T12:34:44.278Z,48.35
2022-09-28T12:37:57.003Z,47.89
2022-09-28T12:41:06.695Z,47.66
2022-09-28T12:44:21.020Z,46.94
2022-09-28T12:47:26.737Z,47.59
2022-09-28T12:50:39.928Z,47.73
2022-09-28T12:54:14.639Z,48.04
2022-09-28T12:57:43.963Z,48.26
2022-09-28T13:00:32.524Z,47.73
2022-09-28T13:03:55.985Z,47.95
2022-09-28T13:07:30.097Z,47.87
2022-09-28T13:10:34.608Z,48.45
2022-09-28T13:13:54.400Z,48.36
2022-09-28T13:16:59.848Z,48.49
2022-09-28T13:19:55.697Z,48.72
2022-09-28T13:22:56.128Z,49.44
2022-09-28T13:25:42.099Z,49.49
2022-09-28T13:28:29.757Z,49.29
2022-09-28T13:31:19.469Z,49.87
2022-09-28T13:33:57.905Z,50.18
2022-09-28T13:36:48.156Z,49.97
2022-09-28T13:39:53.703Z,49.61
2022-09-28T13:43:19.491Z,50.28
2022-09-28T13:46:11.789Z,49.60
2022-09-28T13:48:59.388Z,48.80
2022-09-28T13:51:58.320Z,48.74
2022-09-28T13:55:09.321Z,48.58
2022-09-28T13:57:56.898Z,48.62
2022-09-28T14:00:45.599Z,48.63
2022-09-28T14:03:54.072Z,48.46
2022-09-28T14:06:34.189Z,49.89
2022-09-28T14:09:48.044Z,50.22
2022-09-28T14:12:53.489Z,50.24
2022-09-28T14:15:52.872Z,51.15
2022-09-28T14:18:35.290Z,51.26
2022-09-28T14:22:03.135Z,51.15
2022-09-28T14:25:04.287Z,51.84
2022-09-28T14:28:18.993Z,51.93
2022-09-28T14:31:07.801Z,52.41
2022-09-28T14:33:54.972Z,51.59
2022-09-28T14:37:00.872Z,52.28
2022-09-28T14:40:05.380Z,53.94
2022-09-28T14:42:42.766Z,53.85
2022-09-28T14:45:44.399Z,54.84
2022-09-28T14:48:55.134Z,54.13
2022-09-28T14:52:14.162Z,55.14
2022-09-28T14:55:00.682Z,56.02
2022-09-28T14:57:45.095Z,55.73
2022-09-28T15:00:30.365Z,55.30
2022-09-28T15:03:16.624Z,55.54
2022-09-28T15:05:54.176Z,56.40
2022-09-28T15:08:46.225Z,58.63
2022-09-28T15:11:28.561Z,59.61
2022-09-28T15:14:13.886Z,60.48
2022-09-28T15:16:55.413Z,59.87
2022-09-28T15:19:45.696Z,62.07
2022-09-28T15:22:23.535Z,61.29
2022-09-28T15:25:06.167Z,62.74
2022-09-28T15:27:45.217Z,63.56
2022-09-28T15:30:35.428Z,64.28
2022-09-28T15:33:55.038Z,65.34
2022-09-28T15:36:38.287Z,66.23
2022-09-28T15:39:36.625Z,67.10
2022-09-28T15:42:15.107Z,67.20
2022-09-28T15:45:36.302Z,67.69
2022-09-28T15:48:40.807Z,68.02
2022-09-28T15:51:21.475Z,68.87
2022-09-28T15:54:09.531Z,67.52
2022-09-28T15:57:02.072Z,65.29
2022-09-28T15:59:41.396Z,63.44
2022-09-28T16:02:28.364Z,62.82
2022-09-28T16:05:30.348Z,62.46
2022-09-28T16:08:21.254Z,61.94
2022-09-28T16:11:17.298Z,62.11
2022-09-28T16:14:07.437Z,61.54
2022-09-28T16:16:51.162Z,61.40
2022-09-28T16:19:39.048Z,60.83
2022-09-28T16:22:28.715Z,60.32
2022-09-28T16:25:06.439Z,60.06
2022-09-28T16:27:48.605Z,59.73
2022-09-28T16:30:29.769Z,59.51
2022-09-28T16:33:27.950Z,59.56
2022-09-28T16:36:15.221Z,59.53
2022-09-28T16:38:54.521Z,59.43
2022-09-28T16:41:32.227Z,59.40
2022-09-28T16:44:17.182Z,59.32
2022-09-28T16:46:57.139Z,59.44
2022-09-28T16:49:34.244Z,59.00
2022-09-28T16:52:36.515Z,59.08
2022-09-28T16:58:14.475Z,58.84
2022-09-28T17:00:50.674Z,58.92
2022-09-28T17:03:29.253Z,59.07
2022-09-28T17:06:08.358Z,59.14
2022-09-28T17:08:45.112Z,59.24
2022-09-28T17:11:24.879Z,59.16
2022-09-28T17:14:03.591Z,59.35
2022-09-28T17:19:36.188Z,59.43
2022-09-28T17:22:14.354Z,59.56
2022-09-28T17:24:50.649Z,59.65
2022-09-28T17:27:26.905Z,59.66
2022-09-28T17:30:06.856Z,59.93
2022-09-28T17:32:47.222Z,60.35
2022-09-28T17:35:25.633Z,60.72
2022-09-28T17:38:02.438Z,60.71
2022-09-28T17:40:39.272Z,60.75
2022-09-28T17:43:15.826Z,60.62
2022-09-28T17:45:53.688Z,60.78
2022-09-28T17:48:31.024Z,61.04
2022-09-28T17:51:09.370Z,61.15
2022-09-28T17:53:45.652Z,61.21
2022-09-28T17:56:22.164Z,61.43
2022-09-28T17:59:00.722Z,61.46
2022-09-28T18:01:41.853Z,61.55
2022-09-28T18:04:47.258Z,61.81
2022-09-28T18:07:17.380Z,61.91
2022-09-28T18:09:58.299Z,62.06
2022-09-28T18:12:35.548Z,62.01
2022-09-28T18:15:16.313Z,62.05
2022-09-28T18:17:53.024Z,62.27
2022-09-28T18:20:30.412Z,62.39
2022-09-28T18:23:07.086Z,62.45
2022-09-28T18:25:48.131Z,62.64
2022-09-28T18:28:24.697Z,62.82
2022-09-28T18:31:01.193Z,62.97
2022-09-28T18:33:38.101Z,63.02
2022-09-28T18:36:14.543Z,63.24
2022-09-28T18:38:50.934Z,63.25
2022-09-28T18:41:28.198Z,63.26
2022-09-28T18:44:04.905Z,63.29
2022-09-28T18:46:43.113Z,63.46
2022-09-28T18:49:19.701Z,63.63
2022-09-28T18:51:56.702Z,63.69
2022-09-28T18:54:33.250Z,63.80
2022-09-28T18:57:10.152Z,64.07
2022-09-28T18:59:46.759Z,64.20
2022-09-28T19:02:23.545Z,64.33
2022-09-28T19:05:00.013Z,64.61
2022-09-28T19:07:36.669Z,64.75
2022-09-28T19:10:14.291Z,64.74
2022-09-28T19:12:52.170Z,64.80
2022-09-28T19:15:28.500Z,64.88
2022-09-28T19:18:04.972Z,65.06
2022-09-28T19:20:42.068Z,65.09
2022-09-28T19:23:18.922Z,65.22
2022-09-28T19:25:55.866Z,65.44
2022-09-28T19:28:32.583Z,65.50
2022-09-28T19:31:12.147Z,65.73
2022-09-28T19:33:49.254Z,65.92
2022-09-28T19:36:30.495Z,66.01
2022-09-28T19:39:10.425Z,66.11
2022-09-28T19:41:53.945Z,66.23
2022-09-28T19:44:36.053Z,66.31
2022-09-28T19:47:20.098Z,66.44
2022-09-28T19:49:57.433Z,66.53
2022-09-28T19:52:35.720Z,66.62
2022-09-28T19:55:18.257Z,66.84
2022-09-28T19:57:56.443Z,67.08
2022-09-28T20:00:33.985Z,67.37
2022-09-28T20:03:13.031Z,67.58
2022-09-28T20:05:57.784Z,67.72
2022-09-28T20:08:40.185Z,68.18
2022-09-28T20:11:22.079Z,68.86
2022-09-28T20:14:00.326Z,69.29
2022-09-28T20:16:40.022Z,69.61
2022-09-28T20:19:19.510Z,70.08
2022-09-28T20:21:59.507Z,70.42
2022-09-28T20:24:36.298Z,70.67
2022-09-28T20:27:14.159Z,71.12
2022-09-28T20:29:53.273Z,71.22
2022-09-28T20:32:32.207Z,72.10
2022-09-28T20:35:11.182Z,72.24
2022-09-28T20:37:48.353Z,72.48
2022-09-28T20:40:25.883Z,73.11
2022-09-28T20:43:02.249Z,73.47
2022-09-28T20:45:39.749Z,73.74
2022-09-28T20:48:16.654Z,73.95
2022-09-28T20:51:03.103Z,74.35
2022-09-28T20:53:41.361Z,74.59
2022-09-28T20:56:26.402Z,74.66
2022-09-28T20:59:02.939Z,74.86
2022-09-28T21:01:39.482Z,75.20
2022-09-28T21:04:16.606Z,76.05
2022-09-28T21:06:55.146Z,76.42
2022-09-28T21:09:32.643Z,77.08
2022-09-28T21:12:10.708Z,77.09
2022-09-28T21:14:49.522Z,77.34
2022-09-28T21:17:26.176Z,77.83
2022-09-28T21:20:03.201Z,77.94
2022-09-28T21:22:45.378Z,78.05
2022-09-28T21:25:22.772Z,78.06
2022-09-28T21:27:59.643Z,78.12
2022-09-28T21:30:36.096Z,78.17
2022-09-28T21:33:12.540Z,78.17
2022-09-28T21:35:48.764Z,78.24
2022-09-28T21:38:25.093Z,78.51
2022-09-28T21:41:03.071Z,78.69
2022-09-28T21:43:39.988Z,78.88
2022-09-28T21:46:17.692Z,78.97
2022-09-28T21:48:57.307Z,79.13
2022-09-28T21:51:34.192Z,79.26
2022-09-28T21:54:12.068Z,79.43
2022-09-28T21:56:48.423Z,79.83
2022-09-28T21:59:25.236Z,79.90
2022-09-28T22:02:01.563Z,80.14
2022-09-28T22:04:38.005Z,80.46
2022-09-28T22:07:14.192Z,80.71
2022-09-28T22:09:53.388Z,80.85
2022-09-28T22:12:31.416Z,80.93
2022-09-28T22:15:10.200Z,80.94
2022-09-28T22:17:46.455Z,81.08
2022-09-28T22:20:23.019Z,81.32
2022-09-28T22:22:59.247Z,81.46
2022-09-28T22:25:35.560Z,81.73
2022-09-28T22:28:11.753Z,81.95
2022-09-28T22:30:48.404Z,82.07
2022-09-28T22:33:25.051Z,82.20
2022-09-28T22:36:01.137Z,82.39
2022-09-28T22:38:37.911Z,82.48
2022-09-28T22:41:16.950Z,82.58
2022-09-28T22:43:55.031Z,82.69
2022-09-28T22:46:33.072Z,82.92
2022-09-28T22:49:11.718Z,83.12
2022-09-28T22:51:47.783Z,83.20
2022-09-28T22:54:23.960Z,83.28
2022-09-28T22:57:00.111Z,83.50
2022-09-28T22:59:36.284Z,83.70
2022-09-28T23:02:12.716Z,83.82
2022-09-28T23:04:48.883Z,84.06
2022-09-28T23:07:26.411Z,84.05
2022-09-28T23:10:02.512Z,84.12
2022-09-28T23:12:39.042Z,84.17
2022-09-28T23:15:16.736Z,84.20
2022-09-28T23:17:56.523Z,84.39
2022-09-28T23:20:32.848Z,84.64
2022-09-28T23:23:09.396Z,84.74
2022-09-28T23:25:45.983Z,84.72
2022-09-28T23:28:23.730Z,84.76
2022-09-28T23:31:10.910Z,84.83
2022-09-28T23:33:47.669Z,84.88
2022-09-28T23:36:23.934Z,84.80
2022-09-28T23:39:00.705Z,84.81
2022-09-28T23:41:37.000Z,85.03
2022-09-28T23:44:13.335Z,85.06
2022-09-28T23:46:49.570Z,85.18
2022-09-28T23:49:26.066Z,85.29
2022-09-28T23:52:02.508Z,85.40
2022-09-28T23:54:38.650Z,85.48
2022-09-28T23:57:14.780Z,85.57
2022-09-28T23:59:50.840Z,85.61
